createdAt,value
2022-11-11T00:01:12.635Z,-72
2022-11-11T00:06:33.405Z,-73
2022-11-11T00:11:54.143Z,-72
2022-11-11T00:17:33.729Z,-70
2022-11-11T00:23:17.376Z,-73
2022-11-11T00:28:38.106Z,-72
2022-11-11T00:33:58.530Z,-71
2022-11-11T00:39:19.167Z,-73
2022-11-11T00:44:39.516Z,-71
2022-11-11T00:50:18.269Z,-71
2022-11-11T00:55:39.033Z,-72
2022-11-11T01:00:59.922Z,-71
2022-11-11T01:06:20.515Z,-71
2022-11-11T01:11:40.819Z,-71
2022-11-11T01:17:01.633Z,-71
2022-11-11T01:22:22.294Z,-71
2022-11-11T01:27:42.633Z,-71
2022-11-11T01:33:04.103Z,-72
2022-11-11T01:38:24.758Z,-71
2022-11-11T01:43:45.635Z,-71
2022-11-11T01:49:31.094Z,-71
2022-11-11T01:54:56.619Z,-71
2022-11-11T02:00:19.258Z,-71
2022-11-11T02:05:44.177Z,-72
2022-11-11T02:11:17.017Z,-72
2022-11-11T02:16:37.471Z,-72
2022-11-11T02:22:02.511Z,-72
2022-11-11T02:27:25.107Z,-72
2022-11-11T02:32:49.766Z,-72
2022-11-11T02:38:14.666Z,-70
2022-11-11T02:43:35.404Z,-72
2022-11-11T02:48:55.975Z,-72
2022-11-11T02:54:16.575Z,-71
2022-11-11T02:59:39.385Z,-72
2022-11-11T03:04:59.728Z,-72
2022-11-11T03:10:20.270Z,-69
2022-11-11T03:15:41.980Z,-71
2022-11-11T03:21:38.175Z,-73
2022-11-11T03:26:46.068Z,-71
2022-11-11T03:32:07.985Z,-71
2022-11-11T03:37:47.183Z,-72
2022-11-11T03:43:07.491Z,-72
2022-11-11T03:48:30.675Z,-71
2022-11-11T03:53:51.200Z,-72
2022-11-11T03:59:11.453Z,-73
2022-11-11T04:04:50.590Z,-72
2022-11-11T04:10:23.357Z,-74
2022-11-11T04:16:02.203Z,-73
2022-11-11T04:21:43.129Z,-76
2022-11-11T04:27:10.223Z,-76
2022-11-11T04:32:38.569Z,-69
2022-11-11T04:38:19.208Z,-71
2022-11-11T04:43:58.336Z,-71
2022-11-11T04:49:18.745Z,-76
2022-11-11T04:54:59.215Z,-68
2022-11-11T05:00:19.995Z,-68
2022-11-11T05:05:59.418Z,-68
2022-11-11T05:11:20.607Z,-68
2022-11-11T05:17:02.981Z,-68
2022-11-11T05:22:42.725Z,-68
2022-11-11T05:28:03.070Z,-67
2022-11-11T05:33:23.881Z,-66
2022-11-11T05:38:44.756Z,-67
2022-11-11T05:44:05.340Z,-68
2022-11-11T05:49:25.989Z,-67
2022-11-11T05:54:46.896Z,-68
2022-11-11T06:00:08.179Z,-67
2022-11-11T06:05:28.539Z,-69
2022-11-11T06:10:51.617Z,-68
2022-11-11T06:16:12.033Z,-68
2022-11-11T06:21:52.692Z,-69
2022-11-11T06:27:13.088Z,-68
2022-11-11T06:32:33.762Z,-69
2022-11-11T06:37:54.524Z,-68
2022-11-11T06:43:15.015Z,-67
2022-11-11T06:48:35.443Z,-67
2022-11-11T06:53:55.773Z,-68
2022-11-11T06:59:16.243Z,-68
2022-11-11T07:04:36.360Z,-67
2022-11-11T07:09:57.288Z,-67
2022-11-11T07:15:17.783Z,-67
2022-11-11T07:20:39.107Z,-68
2022-11-11T07:25:59.212Z,-68
2022-11-11T07:31:19.872Z,-71
2022-11-11T07:36:40.584Z,-69
2022-11-11T07:42:01.563Z,-69
2022-11-11T07:47:22.013Z,-69
2022-11-11T07:52:48.696Z,-69
2022-11-11T07:58:09.740Z,-69
2022-11-11T08:03:30.017Z,-69
2022-11-11T08:08:50.612Z,-70
2022-11-11T08:14:10.982Z,-69
2022-11-11T08:19:31.641Z,-69
2022-11-11T08:25:07.828Z,-70
2022-11-11T08:30:29.436Z,-70
2022-11-11T08:35:50.262Z,-68
2022-11-11T08:41:10.839Z,-68
2022-11-11T08:46:31.232Z,-69
2022-11-11T08:51:51.981Z,-70
2022-11-11T08:57:12.308Z,-70
2022-11-11T09:02:32.581Z,-69
2022-11-11T09:07:52.933Z,-69
2022-11-11T09:13:31.733Z,-70
2022-11-11T09:18:52.418Z,-69
2022-11-11T09:24:12.939Z,-69
2022-11-11T09:29:33.408Z,-69
2022-11-11T09:34:55.385Z,-69
2022-11-11T09:40:21.200Z,-69
2022-11-11T09:46:05.132Z,-69
2022-11-11T09:51:55.241Z,-70
2022-11-11T09:57:46.000Z,-69
2022-11-11T10:03:11.751Z,-70
2022-11-11T10:09:02.711Z,-69
2022-11-11T10:14:23.617Z,-69
2022-11-11T10:20:23.256Z,-68
2022-11-11T10:26:19.809Z,-67
2022-11-11T10:31:42.532Z,-68
2022-11-11T10:37:03.837Z,-68
2022-11-11T10:42:24.379Z,-68
2022-11-11T10:47:57.661Z,-68
2022-11-11T10:53:30.186Z,-68
2022-11-11T10:59:09.196Z,-68
2022-11-11T11:04:35.712Z,-68
2022-11-11T11:10:05.131Z,-67
2022-11-11T11:15:28.762Z,-68
2022-11-11T11:21:01.150Z,-67
2022-11-11T11:26:21.520Z,-67
2022-11-11T11:31:47.639Z,-67
2022-11-11T11:37:08.782Z,-68
2022-11-11T11:42:33.895Z,-68
2022-11-11T11:48:24.071Z,-68
2022-11-11T11:54:07.444Z,-68
2022-11-11T11:59:42.017Z,-68
2022-11-11T12:05:09.202Z,-69
2022-11-11T12:10:40.648Z,-68
2022-11-11T12:16:18.461Z,-68
2022-11-11T12:22:03.015Z,-68
2022-11-11T12:27:39.569Z,-67
2022-11-11T12:33:29.892Z,-68
2022-11-11T12:38:54.257Z,-67
2022-11-11T12:44:15.409Z,-68
2022-11-11T12:49:57.662Z,-67
2022-11-11T12:55:20.847Z,-68
2022-11-11T13:00:56.317Z,-67
2022-11-11T13:06:33.652Z,-67
2022-11-11T13:11:59.622Z,-67
2022-11-11T13:17:22.094Z,-67
2022-11-11T13:22:42.690Z,-68
2022-11-11T13:28:21.418Z,-67
2022-11-11T13:33:49.072Z,-68
2022-11-11T13:39:30.160Z,-68
2022-11-11T13:44:54.385Z,-67
2022-11-11T13:50:26.631Z,-68
2022-11-11T13:55:47.434Z,-67
2022-11-11T14:01:11.316Z,-67
2022-11-11T14:06:34.595Z,-68
2022-11-11T14:12:22.352Z,-68
2022-11-11T14:17:52.027Z,-68
2022-11-11T14:23:16.894Z,-68
2022-11-11T14:28:51.542Z,-68
2022-11-11T14:34:18.022Z,-68
2022-11-11T14:39:51.493Z,-67
2022-11-11T14:45:25.335Z,-68
2022-11-11T14:50:53.273Z,-67
2022-11-11T14:56:21.336Z,-67
2022-11-11T15:01:42.092Z,-67
2022-11-11T15:07:02.798Z,-68
2022-11-11T15:12:53.235Z,-68
2022-11-11T15:18:26.300Z,-70
2022-11-11T15:24:37.029Z,-69
2022-11-11T15:30:03.033Z,-70
2022-11-11T15:35:27.780Z,-69
2022-11-11T15:41:00.041Z,-70
2022-11-11T15:46:31.116Z,-70
2022-11-11T15:51:57.019Z,-69
2022-11-11T15:57:39.403Z,-70
2022-11-11T16:03:06.865Z,-73
2022-11-11T16:08:28.944Z,-73
2022-11-11T16:14:08.003Z,-70
2022-11-11T16:19:48.829Z,-69
2022-11-11T16:25:19.682Z,-70
2022-11-11T16:30:40.547Z,-69
2022-11-11T16:36:11.176Z,-70
2022-11-11T16:41:32.009Z,-69
2022-11-11T16:46:52.623Z,-71
2022-11-11T16:52:19.108Z,-70
2022-11-11T16:57:43.243Z,-69
2022-11-11T17:03:17.472Z,-71
2022-11-11T17:08:46.685Z,-69
2022-11-11T17:14:07.531Z,-69
2022-11-11T17:19:28.188Z,-73
2022-11-11T17:24:48.988Z,-73
2022-11-11T17:30:10.417Z,-73
2022-11-11T17:35:30.892Z,-69
2022-11-11T17:40:51.243Z,-69
2022-11-11T17:46:11.859Z,-69
2022-11-11T17:51:32.371Z,-69
2022-11-11T17:56:54.200Z,-70
2022-11-11T18:02:14.687Z,-72
2022-11-11T18:07:44.899Z,-69
2022-11-11T18:13:05.638Z,-70
2022-11-11T18:18:27.281Z,-69
2022-11-11T18:23:51.581Z,-72
2022-11-11T18:29:12.374Z,-72
2022-11-11T18:34:39.388Z,-70
2022-11-11T18:40:06.792Z,-72
2022-11-11T18:45:27.919Z,-73
2022-11-11T18:50:55.031Z,-72
2022-11-11T18:56:18.115Z,-73
2022-11-11T19:01:40.968Z,-71
2022-11-11T19:07:01.453Z,-71
2022-11-11T19:12:22.115Z,-73
2022-11-11T19:17:42.598Z,-72
2022-11-11T19:23:03.260Z,-72
2022-11-11T19:28:23.621Z,-73
2022-11-11T19:33:46.429Z,-69
2022-11-11T19:39:09.827Z,-69
2022-11-11T19:44:30.099Z,-70
2022-11-11T19:49:50.744Z,-69
2022-11-11T19:55:11.452Z,-72
2022-11-11T20:00:31.845Z,-70
2022-11-11T20:05:52.345Z,-72
2022-11-11T20:11:12.767Z,-71
2022-11-11T20:16:33.436Z,-72
2022-11-11T20:21:53.847Z,-69
2022-11-11T20:27:14.322Z,-70
2022-11-11T20:32:35.731Z,-72
2022-11-11T20:37:56.343Z,-72
2022-11-11T20:43:17.091Z,-72
2022-11-11T20:48:39.575Z,-72
2022-11-11T20:53:59.824Z,-73
2022-11-11T20:59:20.424Z,-73
2022-11-11T21:04:42.368Z,-68
2022-11-11T21:10:02.852Z,-67
2022-11-11T21:15:23.776Z,-66
2022-11-11T21:20:45.171Z,-68
2022-11-11T21:26:10.643Z,-67
2022-11-11T21:31:40.092Z,-68
2022-11-11T21:37:00.347Z,-68
2022-11-11T21:42:20.536Z,-68
2022-11-11T21:47:43.807Z,-68
2022-11-11T21:53:10.206Z,-67
2022-11-11T21:58:37.616Z,-68
2022-11-11T22:04:04.031Z,-68
2022-11-11T22:09:24.414Z,-67
2022-11-11T22:14:46.284Z,-68
2022-11-11T22:20:07.107Z,-69
2022-11-11T22:25:27.789Z,-67
2022-11-11T22:30:48.296Z,-67
2022-11-11T22:36:14.588Z,-67
2022-11-11T22:41:37.463Z,-67
2022-11-11T22:46:58.262Z,-67
2022-11-11T22:52:18.641Z,-68
2022-11-11T22:57:39.099Z,-67
2022-11-11T23:02:59.715Z,-67
2022-11-11T23:08:20.020Z,-67
2022-11-11T23:13:42.185Z,-67
2022-11-11T23:19:06.101Z,-67
2022-11-11T23:24:26.572Z,-73
2022-11-11T23:29:52.060Z,-73
2022-11-11T23:35:12.708Z,-72
2022-11-11T23:40:33.385Z,-73
2022-11-11T23:45:57.526Z,-73
2022-11-11T23:51:18.964Z,-72
2022-11-11T23:56:39.543Z,-72
